Portada
METAR-TAF:

METAR-TAF

Aeroports :

Erevan, Armènia

latitud: 40-08-50N, longitud: 044-23-45E, altitud: 865 m

Observació

L'informe es va fer fa 30 minuts, a les 18:00 UTC
Vent 1 kt del Nord/Nord-Oest
Temperatura 16°C
Humitat 72%
Pressió 1020 hPa
Visibilitat 10 km o més

METAR: UDYZ 261800Z 34001KT 9999 NSC 16/11 Q1020 R09/010070 NOSIG

Hora: 22:30 (18:30 UTC)

Pronòstic

L'informe es va fer fa 1 hora i 28 minuts, a les 17:02 UTC
Pronòstic vàlid del 26 a les 18 UTC al 27 a les 18 UTC
Vent 6 kt amb direcció variable
Visibilitat 10 km o més
sense núvols per sota de 1500 mi sense presència de cumulonimbus.
Temporalment
l' 26 a les 18 UTC al 27 a les 01 UTC
Vent 20 kt del Nord-Est

TAF: UDYZ 261702Z 2618/2718 VRB06KT CAVOK TEMPO 2618/2701 04020KT

Observacions i pronòstics meteorològics de més de 4000 aeroports (METAR i TAF).

Les estacions disponibles són els punts grocs i vermells al mapa.

Posi el ratolí al punt desitjat per veure el nom de l'estació.

Feu clic per veure les observacions i els pronòstics meteorològics.

Per canviar el mapa: feu clic els botons verds amb una creu de color negre per apropar; al botó verd amb un guió per allunyar la imatge; o en les fletxes verdes per a mapes adjacents.


METAR-TAF: